Stratton, OH (43961)

1:30 PM EDT on August 30, 2014 (GMT -0400)
Kings Creek Bowl | Change Station
CLOSE
Current Station
Personal Weather Station
Location: Weirton, WV
Elevation: 814 ft
Nearby Weather Stations

Elev 814 ft 40.43 °N, 80.60 °W | Updated 11 seconds ago

Partly Cloudy
Partly Cloudy
90.5 °F
Feels Like 103 °F
N
3.1
Wind Variable Wind from North
Gusts 7.6 mph

Today
High -- | Low -- °F
--% Chance of Precip.
Yesterday
High -- | Low -- °F
Precip. -- in
6:47 AM 7:57 PM
Waxing Crescent, 23% visible
Pressure 30.11 in
Visibility 10.0 miles
Clouds Few 10000 ft
Mostly Cloudy 25000 ft
Heat Index 103 °F
Dew Point 76 °F
Humidity 63%
Rainfall 0.00 in
Snow Depth Not available.
UV 5 out of 12
Pollen 10.20 out of 12
Air Quality Not available.
Flu Activity Not available.
METAR KPIT 301651Z 20008KT 10SM FEW100 BKN250 27/20 A3011 RMK AO2 SLP195 T02720200

More Conditions Fewer Conditions

Pressure 30.11 in
Visibility 10.0 miles
Clouds Few 10000 ft
Mostly Cloudy 25000 ft
Heat Index 103 °F
Dew Point 76 °F
Humidity 63%
Rainfall 0.00 in
Snow Depth Not available.
UV 5 out of 12
Pollen 10.20 out of 12
Air Quality Not available.
Flu Activity Not available.
METAR KPIT 301651Z 20008KT 10SM FEW100 BKN250 27/20 A3011 RMK AO2 SLP195 T02720200

More Conditions Fewer Conditions

10-Day Weather Forecast

Almanac

Astronomy

Aug. 30, 2014 Rise Set
Actual Time 6:47 AM EDT 7:57 PM EDT
Civil Twilight 6:19 AM EDT 8:25 PM EDT
Nautical Twilight 5:45 AM EDT 8:59 PM EDT
Astronomical Twilight 5:10 AM EDT 9:34 PM EDT
Moon 11:35 AM EDT 10:29 PM EDT
Length of Visible Light 14h 06m
Length of Day
13h 09m
Tomorrow will be 2m 33s shorter.
Waxing Crescent, 23% of the Moon is Illuminated
Today
Waxing Crescent
Sep 2
First Quarter
Sep 8
Full
Sep 15
Last Quarter
Sep 24
New

Today's Extremes

State Highs State Lows

Community

WunderPhotos

Upload Photos

1,748,578 photos uploaded!

WunderBlogs® & News

Nearby

Snow Depth

Station Depth Elevation
No new snow has been reported.

Earthquake Activity

City Distance Mag. Time & Date
No recent earthquake activity has been reported nearby.
Minimum magnitude displayed is 2.5.

Coastal Water Temperatures

Place Temperature
No Stations Reporting

Nearby Weather Stations